sensor_id;sensor_type;location;lat;lon;timestamp;P1;durP1;ratioP1;P2;durP2;ratioP2
82292;SDS011;71892;14.836;105.234;2023-08-12T00:00:50;9.55;;;4.32;;
82292;SDS011;71892;14.836;105.234;2023-08-12T00:03:16;13.10;;;4.57;;
82292;SDS011;71892;14.836;105.234;2023-08-12T00:05:42;9.43;;;4.43;;
82292;SDS011;71892;14.836;105.234;2023-08-12T00:08:10;10.52;;;4.25;;
82292;SDS011;71892;14.836;105.234;2023-08-12T00:10:37;8.25;;;4.20;;
82292;SDS011;71892;14.836;105.234;2023-08-12T00:13:03;15.50;;;4.28;;
82292;SDS011;71892;14.836;105.234;2023-08-12T00:15:29;6.82;;;3.90;;
82292;SDS011;71892;14.836;105.234;2023-08-12T00:17:56;9.38;;;3.97;;
82292;SDS011;71892;14.836;105.234;2023-08-12T00:20:22;9.40;;;3.90;;
82292;SDS011;71892;14.836;105.234;2023-08-12T00:22:49;6.18;;;2.47;;
82292;SDS011;71892;14.836;105.234;2023-08-12T00:25:16;8.25;;;3.22;;
82292;SDS011;71892;14.836;105.234;2023-08-12T00:27:42;10.98;;;2.95;;
82292;SDS011;71892;14.836;105.234;2023-08-12T00:30:08;8.63;;;3.50;;
82292;SDS011;71892;14.836;105.234;2023-08-12T00:32:35;9.25;;;3.15;;
82292;SDS011;71892;14.836;105.234;2023-08-12T00:35:02;10.18;;;3.17;;
82292;SDS011;71892;14.836;105.234;2023-08-12T00:37:28;7.28;;;2.58;;
82292;SDS011;71892;14.836;105.234;2023-08-12T00:39:54;5.80;;;2.50;;
82292;SDS011;71892;14.836;105.234;2023-08-12T00:42:21;6.60;;;2.20;;
82292;SDS011;71892;14.836;105.234;2023-08-12T00:44:47;9.32;;;2.67;;
82292;SDS011;71892;14.836;105.234;2023-08-12T00:47:16;8.18;;;2.90;;
82292;SDS011;71892;14.836;105.234;2023-08-12T00:52:12;9.35;;;3.35;;
82292;SDS011;71892;14.836;105.234;2023-08-12T00:54:40;10.88;;;2.63;;
82292;SDS011;71892;14.836;105.234;2023-08-12T00:57:07;6.35;;;2.47;;
82292;SDS011;71892;14.836;105.234;2023-08-12T00:59:35;6.20;;;2.53;;
82292;SDS011;71892;14.836;105.234;2023-08-12T01:02:02;8.32;;;2.25;;
82292;SDS011;71892;14.836;105.234;2023-08-12T01:04:30;7.55;;;2.67;;
82292;SDS011;71892;14.836;105.234;2023-08-12T01:06:56;9.35;;;3.10;;
82292;SDS011;71892;14.836;105.234;2023-08-12T01:09:23;6.10;;;2.72;;
82292;SDS011;71892;14.836;105.234;2023-08-12T01:11:51;10.25;;;2.85;;
82292;SDS011;71892;14.836;105.234;2023-08-12T01:14:27;6.57;;;2.03;;
82292;SDS011;71892;14.836;105.234;2023-08-12T01:16:58;6.97;;;2.10;;
82292;SDS011;71892;14.836;105.234;2023-08-12T01:19:34;7.72;;;2.35;;
82292;SDS011;71892;14.836;105.234;2023-08-12T01:22:04;7.20;;;2.30;;
82292;SDS011;71892;14.836;105.234;2023-08-12T01:24:38;7.32;;;2.60;;
82292;SDS011;71892;14.836;105.234;2023-08-12T01:27:09;5.85;;;2.35;;
82292;SDS011;71892;14.836;105.234;2023-08-12T01:29:44;6.93;;;1.92;;
82292;SDS011;71892;14.836;105.234;2023-08-12T01:35:21;8.07;;;2.08;;
82292;SDS011;71892;14.836;105.234;2023-08-12T01:37:56;5.93;;;1.88;;
82292;SDS011;71892;14.836;105.234;2023-08-12T01:40:25;6.10;;;2.28;;
82292;SDS011;71892;14.836;105.234;2023-08-12T01:42:54;7.88;;;2.88;;
82292;SDS011;71892;14.836;105.234;2023-08-12T01:45:20;6.78;;;2.05;;
82292;SDS011;71892;14.836;105.234;2023-08-12T01:47:48;8.75;;;2.75;;
82292;SDS011;71892;14.836;105.234;2023-08-12T01:50:16;7.03;;;2.13;;
82292;SDS011;71892;14.836;105.234;2023-08-12T01:52:44;7.60;;;2.50;;
82292;SDS011;71892;14.836;105.234;2023-08-12T01:55:10;6.22;;;2.50;;
82292;SDS011;71892;14.836;105.234;2023-08-12T01:57:37;7.15;;;2.20;;
82292;SDS011;71892;14.836;105.234;2023-08-12T02:00:03;7.20;;;2.38;;
82292;SDS011;71892;14.836;105.234;2023-08-12T02:02:31;6.97;;;2.40;;
82292;SDS011;71892;14.836;105.234;2023-08-12T02:04:57;5.88;;;2.70;;
82292;SDS011;71892;14.836;105.234;2023-08-12T02:07:24;8.68;;;2.75;;
82292;SDS011;71892;14.836;105.234;2023-08-12T02:09:50;6.88;;;2.30;;
82292;SDS011;71892;14.836;105.234;2023-08-12T02:12:17;11.27;;;2.33;;
82292;SDS011;71892;14.836;105.234;2023-08-12T02:14:43;7.45;;;2.08;;
82292;SDS011;71892;14.836;105.234;2023-08-12T02:17:09;14.67;;;2.77;;
82292;SDS011;71892;14.836;105.234;2023-08-12T02:19:36;7.07;;;2.13;;
82292;SDS011;71892;14.836;105.234;2023-08-12T02:22:02;10.20;;;2.45;;
82292;SDS011;71892;14.836;105.234;2023-08-12T02:24:28;9.93;;;2.33;;
82292;SDS011;71892;14.836;105.234;2023-08-12T02:26:55;9.52;;;2.10;;
82292;SDS011;71892;14.836;105.234;2023-08-12T02:29:21;8.13;;;2.30;;
82292;SDS011;71892;14.836;105.234;2023-08-12T02:31:48;6.60;;;2.40;;
82292;SDS011;71892;14.836;105.234;2023-08-12T02:34:14;10.18;;;2.17;;
82292;SDS011;71892;14.836;105.234;2023-08-12T02:36:40;5.78;;;2.10;;
82292;SDS011;71892;14.836;105.234;2023-08-12T02:39:07;8.80;;;2.42;;
82292;SDS011;71892;14.836;105.234;2023-08-12T02:41:33;6.50;;;2.08;;
82292;SDS011;71892;14.836;105.234;2023-08-12T02:44:00;8.77;;;2.45;;
82292;SDS011;71892;14.836;105.234;2023-08-12T02:46:26;7.43;;;2.45;;
82292;SDS011;71892;14.836;105.234;2023-08-12T02:48:52;7.18;;;2.67;;
82292;SDS011;71892;14.836;105.234;2023-08-12T02:51:19;6.13;;;2.42;;
82292;SDS011;71892;14.836;105.234;2023-08-12T02:53:45;5.43;;;2.10;;
82292;SDS011;71892;14.836;105.234;2023-08-12T02:56:11;7.85;;;2.33;;
82292;SDS011;71892;14.836;105.234;2023-08-12T02:58:38;9.52;;;2.70;;
82292;SDS011;71892;14.836;105.234;2023-08-12T03:01:04;8.15;;;2.55;;
82292;SDS011;71892;14.836;105.234;2023-08-12T03:03:31;7.95;;;2.80;;
82292;SDS011;71892;14.836;105.234;2023-08-12T03:05:57;11.88;;;2.50;;
82292;SDS011;71892;14.836;105.234;2023-08-12T03:08:24;7.78;;;2.42;;
82292;SDS011;71892;14.836;105.234;2023-08-12T03:10:50;10.52;;;2.50;;
82292;SDS011;71892;14.836;105.234;2023-08-12T03:13:23;5.95;;;2.50;;
82292;SDS011;71892;14.836;105.234;2023-08-12T03:15:49;7.43;;;2.55;;
82292;SDS011;71892;14.836;105.234;2023-08-12T03:18:15;13.68;;;2.90;;
82292;SDS011;71892;14.836;105.234;2023-08-12T03:20:42;11.88;;;2.97;;
82292;SDS011;71892;14.836;105.234;2023-08-12T03:23:08;6.15;;;2.70;;
82292;SDS011;71892;14.836;105.234;2023-08-12T03:25:34;9.90;;;2.50;;
82292;SDS011;71892;14.836;105.234;2023-08-12T03:28:01;7.45;;;2.30;;
82292;SDS011;71892;14.836;105.234;2023-08-12T03:30:27;10.63;;;2.97;;
82292;SDS011;71892;14.836;105.234;2023-08-12T03:32:53;7.47;;;2.58;;
82292;SDS011;71892;14.836;105.234;2023-08-12T03:35:20;6.97;;;2.50;;
82292;SDS011;71892;14.836;105.234;2023-08-12T03:37:46;8.98;;;2.67;;
82292;SDS011;71892;14.836;105.234;2023-08-12T03:40:13;6.78;;;2.20;;
82292;SDS011;71892;14.836;105.234;2023-08-12T03:42:39;7.85;;;2.35;;
82292;SDS011;71892;14.836;105.234;2023-08-12T03:45:06;7.38;;;2.72;;
82292;SDS011;71892;14.836;105.234;2023-08-12T03:47:32;7.55;;;2.75;;
82292;SDS011;71892;14.836;105.234;2023-08-12T03:49:59;8.95;;;2.80;;
82292;SDS011;71892;14.836;105.234;2023-08-12T03:52:25;6.68;;;2.70;;
82292;SDS011;71892;14.836;105.234;2023-08-12T03:54:51;7.93;;;2.40;;
82292;SDS011;71892;14.836;105.234;2023-08-12T03:57:18;8.27;;;3.05;;
82292;SDS011;71892;14.836;105.234;2023-08-12T03:59:45;6.60;;;2.65;;
82292;SDS011;71892;14.836;105.234;2023-08-12T04:02:11;8.38;;;2.72;;
82292;SDS011;71892;14.836;105.234;2023-08-12T04:04:37;9.68;;;2.92;;
82292;SDS011;71892;14.836;105.234;2023-08-12T04:07:04;10.63;;;3.08;;
82292;SDS011;71892;14.836;105.234;2023-08-12T04:09:30;7.53;;;2.35;;
82292;SDS011;71892;14.836;105.234;2023-08-12T04:11:56;7.70;;;2.95;;
82292;SDS011;71892;14.836;105.234;2023-08-12T04:14:23;8.70;;;3.00;;
82292;SDS011;71892;14.836;105.234;2023-08-12T04:16:49;10.65;;;3.70;;
82292;SDS011;71892;14.836;105.234;2023-08-12T04:19:15;12.07;;;3.30;;
82292;SDS011;71892;14.836;105.234;2023-08-12T04:21:42;8.95;;;2.55;;
82292;SDS011;71892;14.836;105.234;2023-08-12T04:24:11;13.05;;;2.75;;
82292;SDS011;71892;14.836;105.234;2023-08-12T04:26:38;9.27;;;2.83;;
82292;SDS011;71892;14.836;105.234;2023-08-12T04:29:05;10.40;;;2.80;;
82292;SDS011;71892;14.836;105.234;2023-08-12T04:31:31;10.48;;;2.67;;
82292;SDS011;71892;14.836;105.234;2023-08-12T04:33:57;6.65;;;2.30;;
82292;SDS011;71892;14.836;105.234;2023-08-12T04:36:24;9.00;;;3.22;;
82292;SDS011;71892;14.836;105.234;2023-08-12T04:38:50;9.40;;;3.50;;
82292;SDS011;71892;14.836;105.234;2023-08-12T04:41:16;9.50;;;3.03;;
82292;SDS011;71892;14.836;105.234;2023-08-12T04:43:43;8.60;;;2.75;;
82292;SDS011;71892;14.836;105.234;2023-08-12T04:46:10;8.73;;;2.72;;
82292;SDS011;71892;14.836;105.234;2023-08-12T04:48:36;9.10;;;3.03;;
82292;SDS011;71892;14.836;105.234;2023-08-12T04:51:02;6.88;;;2.50;;
82292;SDS011;71892;14.836;105.234;2023-08-12T04:53:30;10.32;;;2.90;;
82292;SDS011;71892;14.836;105.234;2023-08-12T04:55:56;7.95;;;2.75;;
82292;SDS011;71892;14.836;105.234;2023-08-12T04:58:23;10.75;;;2.63;;
82292;SDS011;71892;14.836;105.234;2023-08-12T05:00:50;8.48;;;2.40;;
82292;SDS011;71892;14.836;105.234;2023-08-12T05:03:19;9.65;;;2.80;;
82292;SDS011;71892;14.836;105.234;2023-08-12T05:05:50;7.22;;;2.85;;
82292;SDS011;71892;14.836;105.234;2023-08-12T05:08:17;10.75;;;2.90;;
82292;SDS011;71892;14.836;105.234;2023-08-12T05:10:46;6.55;;;2.83;;
82292;SDS011;71892;14.836;105.234;2023-08-12T05:13:13;9.60;;;3.10;;
82292;SDS011;71892;14.836;105.234;2023-08-12T05:15:40;11.23;;;2.70;;
82292;SDS011;71892;14.836;105.234;2023-08-12T05:18:06;10.45;;;3.35;;
82292;SDS011;71892;14.836;105.234;2023-08-12T05:20:33;11.20;;;3.05;;
82292;SDS011;71892;14.836;105.234;2023-08-12T05:22:59;8.18;;;2.95;;
82292;SDS011;71892;14.836;105.234;2023-08-12T05:25:25;12.90;;;3.28;;
82292;SDS011;71892;14.836;105.234;2023-08-12T05:27:52;11.45;;;3.65;;
82292;SDS011;71892;14.836;105.234;2023-08-12T05:30:18;14.73;;;3.70;;
82292;SDS011;71892;14.836;105.234;2023-08-12T05:32:45;10.18;;;3.38;;
82292;SDS011;71892;14.836;105.234;2023-08-12T05:35:11;10.50;;;3.30;;
82292;SDS011;71892;14.836;105.234;2023-08-12T05:37:37;9.90;;;3.17;;
82292;SDS011;71892;14.836;105.234;2023-08-12T05:40:04;7.57;;;3.70;;
82292;SDS011;71892;14.836;105.234;2023-08-12T05:42:34;10.82;;;3.15;;
82292;SDS011;71892;14.836;105.234;2023-08-12T05:45:00;11.32;;;3.20;;
82292;SDS011;71892;14.836;105.234;2023-08-12T05:47:27;9.95;;;3.65;;
82292;SDS011;71892;14.836;105.234;2023-08-12T05:49:53;10.40;;;3.67;;
82292;SDS011;71892;14.836;105.234;2023-08-12T05:52:19;10.32;;;3.60;;
82292;SDS011;71892;14.836;105.234;2023-08-12T05:54:45;10.82;;;3.67;;
82292;SDS011;71892;14.836;105.234;2023-08-12T05:57:12;10.50;;;3.95;;
82292;SDS011;71892;14.836;105.234;2023-08-12T05:59:38;9.88;;;3.88;;
82292;SDS011;71892;14.836;105.234;2023-08-12T06:02:05;14.25;;;3.85;;
82292;SDS011;71892;14.836;105.234;2023-08-12T06:04:31;12.43;;;3.30;;
82292;SDS011;71892;14.836;105.234;2023-08-12T06:06:58;8.95;;;3.78;;
82292;SDS011;71892;14.836;105.234;2023-08-12T06:09:24;11.43;;;3.72;;
82292;SDS011;71892;14.836;105.234;2023-08-12T06:11:50;11.55;;;3.90;;
82292;SDS011;71892;14.836;105.234;2023-08-12T06:14:17;13.10;;;4.05;;
82292;SDS011;71892;14.836;105.234;2023-08-12T06:16:43;12.55;;;4.00;;
82292;SDS011;71892;14.836;105.234;2023-08-12T06:19:10;10.48;;;3.95;;
82292;SDS011;71892;14.836;105.234;2023-08-12T06:21:36;12.88;;;4.43;;
82292;SDS011;71892;14.836;105.234;2023-08-12T06:24:02;14.70;;;4.43;;
82292;SDS011;71892;14.836;105.234;2023-08-12T06:26:29;13.70;;;4.57;;
82292;SDS011;71892;14.836;105.234;2023-08-12T06:28:55;10.10;;;3.95;;
82292;SDS011;71892;14.836;105.234;2023-08-12T06:31:22;12.05;;;3.63;;
82292;SDS011;71892;14.836;105.234;2023-08-12T06:33:48;14.25;;;4.70;;
82292;SDS011;71892;14.836;105.234;2023-08-12T06:36:14;13.45;;;4.68;;
82292;SDS011;71892;14.836;105.234;2023-08-12T06:38:40;12.52;;;4.18;;
82292;SDS011;71892;14.836;105.234;2023-08-12T06:41:07;11.38;;;4.22;;
82292;SDS011;71892;14.836;105.234;2023-08-12T06:43:33;13.65;;;4.72;;
82292;SDS011;71892;14.836;105.234;2023-08-12T06:46:00;9.98;;;4.20;;
82292;SDS011;71892;14.836;105.234;2023-08-12T06:48:26;11.57;;;4.00;;
82292;SDS011;71892;14.836;105.234;2023-08-12T06:50:54;18.02;;;6.05;;
82292;SDS011;71892;14.836;105.234;2023-08-12T06:53:21;12.70;;;3.72;;
82292;SDS011;71892;14.836;105.234;2023-08-12T06:55:48;12.13;;;4.50;;
82292;SDS011;71892;14.836;105.234;2023-08-12T06:58:14;15.98;;;3.75;;
82292;SDS011;71892;14.836;105.234;2023-08-12T07:00:41;8.50;;;4.07;;
82292;SDS011;71892;14.836;105.234;2023-08-12T07:03:07;15.68;;;5.38;;
82292;SDS011;71892;14.836;105.234;2023-08-12T07:05:34;13.20;;;4.57;;
82292;SDS011;71892;14.836;105.234;2023-08-12T07:08:00;11.75;;;4.55;;
82292;SDS011;71892;14.836;105.234;2023-08-12T07:10:27;11.25;;;4.05;;
82292;SDS011;71892;14.836;105.234;2023-08-12T07:12:53;13.88;;;4.10;;
82292;SDS011;71892;14.836;105.234;2023-08-12T07:15:20;9.02;;;3.90;;
82292;SDS011;71892;14.836;105.234;2023-08-12T07:17:46;13.10;;;3.80;;
82292;SDS011;71892;14.836;105.234;2023-08-12T07:20:12;10.40;;;3.60;;
82292;SDS011;71892;14.836;105.234;2023-08-12T07:22:39;14.65;;;4.07;;
82292;SDS011;71892;14.836;105.234;2023-08-12T07:25:05;14.73;;;4.32;;
82292;SDS011;71892;14.836;105.234;2023-08-12T07:27:32;16.08;;;4.22;;
82292;SDS011;71892;14.836;105.234;2023-08-12T07:29:58;14.13;;;4.72;;
82292;SDS011;71892;14.836;105.234;2023-08-12T07:32:24;12.63;;;4.18;;
82292;SDS011;71892;14.836;105.234;2023-08-12T07:34:51;13.18;;;4.00;;
82292;SDS011;71892;14.836;105.234;2023-08-12T07:37:17;11.13;;;3.83;;
82292;SDS011;71892;14.836;105.234;2023-08-12T07:39:43;12.35;;;4.20;;
82292;SDS011;71892;14.836;105.234;2023-08-12T07:42:10;11.80;;;3.97;;
82292;SDS011;71892;14.836;105.234;2023-08-12T07:44:36;13.50;;;4.35;;
82292;SDS011;71892;14.836;105.234;2023-08-12T07:47:02;9.40;;;4.07;;
82292;SDS011;71892;14.836;105.234;2023-08-12T07:49:29;18.42;;;4.75;;
82292;SDS011;71892;14.836;105.234;2023-08-12T07:51:55;16.85;;;4.28;;
82292;SDS011;71892;14.836;105.234;2023-08-12T07:54:22;11.77;;;4.45;;
82292;SDS011;71892;14.836;105.234;2023-08-12T07:56:48;16.83;;;5.03;;
82292;SDS011;71892;14.836;105.234;2023-08-12T07:59:14;10.70;;;4.25;;
82292;SDS011;71892;14.836;105.234;2023-08-12T08:01:41;17.67;;;4.20;;
82292;SDS011;71892;14.836;105.234;2023-08-12T08:04:07;13.57;;;4.45;;
82292;SDS011;71892;14.836;105.234;2023-08-12T08:06:34;17.17;;;4.35;;
82292;SDS011;71892;14.836;105.234;2023-08-12T08:09:00;10.68;;;4.43;;
82292;SDS011;71892;14.836;105.234;2023-08-12T08:11:29;12.82;;;4.75;;
82292;SDS011;71892;14.836;105.234;2023-08-12T08:13:57;17.00;;;4.43;;
82292;SDS011;71892;14.836;105.234;2023-08-12T08:16:24;12.02;;;5.05;;
82292;SDS011;71892;14.836;105.234;2023-08-12T08:18:50;11.63;;;4.47;;
82292;SDS011;71892;14.836;105.234;2023-08-12T08:21:16;11.52;;;4.47;;
82292;SDS011;71892;14.836;105.234;2023-08-12T08:23:43;9.88;;;4.22;;
82292;SDS011;71892;14.836;105.234;2023-08-12T08:26:09;15.15;;;4.68;;
82292;SDS011;71892;14.836;105.234;2023-08-12T08:28:37;11.05;;;4.55;;
82292;SDS011;71892;14.836;105.234;2023-08-12T08:31:03;15.25;;;4.35;;
82292;SDS011;71892;14.836;105.234;2023-08-12T08:33:30;15.73;;;5.13;;
82292;SDS011;71892;14.836;105.234;2023-08-12T08:35:56;10.90;;;4.90;;
82292;SDS011;71892;14.836;105.234;2023-08-12T08:38:22;14.38;;;4.35;;
82292;SDS011;71892;14.836;105.234;2023-08-12T08:40:49;11.82;;;4.45;;
82292;SDS011;71892;14.836;105.234;2023-08-12T08:43:20;14.05;;;4.50;;
82292;SDS011;71892;14.836;105.234;2023-08-12T08:45:53;11.30;;;3.92;;
82292;SDS011;71892;14.836;105.234;2023-08-12T08:48:20;11.48;;;4.35;;
82292;SDS011;71892;14.836;105.234;2023-08-12T08:50:48;13.30;;;4.35;;
82292;SDS011;71892;14.836;105.234;2023-08-12T08:53:15;15.30;;;4.47;;
82292;SDS011;71892;14.836;105.234;2023-08-12T08:55:43;13.45;;;4.55;;
82292;SDS011;71892;14.836;105.234;2023-08-12T08:58:11;13.88;;;5.10;;
82292;SDS011;71892;14.836;105.234;2023-08-12T09:00:38;13.75;;;4.88;;
82292;SDS011;71892;14.836;105.234;2023-08-12T09:03:05;11.35;;;4.32;;
82292;SDS011;71892;14.836;105.234;2023-08-12T09:05:33;14.10;;;4.70;;
82292;SDS011;71892;14.836;105.234;2023-08-12T09:08:01;11.05;;;4.50;;
82292;SDS011;71892;14.836;105.234;2023-08-12T09:10:31;17.02;;;4.88;;
82292;SDS011;71892;14.836;105.234;2023-08-12T09:13:00;10.32;;;4.18;;
82292;SDS011;71892;14.836;105.234;2023-08-12T09:15:27;13.93;;;4.53;;
82292;SDS011;71892;14.836;105.234;2023-08-12T09:17:53;16.80;;;4.63;;
82292;SDS011;71892;14.836;105.234;2023-08-12T09:20:20;14.73;;;4.35;;
82292;SDS011;71892;14.836;105.234;2023-08-12T09:22:47;13.13;;;5.07;;
82292;SDS011;71892;14.836;105.234;2023-08-12T09:25:29;12.07;;;4.38;;
82292;SDS011;71892;14.836;105.234;2023-08-12T09:27:58;19.77;;;4.82;;
82292;SDS011;71892;14.836;105.234;2023-08-12T09:30:27;14.48;;;5.47;;
82292;SDS011;71892;14.836;105.234;2023-08-12T09:33:02;10.60;;;4.88;;
82292;SDS011;71892;14.836;105.234;2023-08-12T09:35:33;12.75;;;5.05;;
82292;SDS011;71892;14.836;105.234;2023-08-12T09:38:01;13.20;;;4.45;;
82292;SDS011;71892;14.836;105.234;2023-08-12T09:40:32;11.55;;;4.03;;
82292;SDS011;71892;14.836;105.234;2023-08-12T09:43:00;18.30;;;4.38;;
82292;SDS011;71892;14.836;105.234;2023-08-12T09:45:27;11.95;;;5.05;;
82292;SDS011;71892;14.836;105.234;2023-08-12T09:47:54;13.57;;;4.30;;
82292;SDS011;71892;14.836;105.234;2023-08-12T09:50:21;17.20;;;5.13;;
82292;SDS011;71892;14.836;105.234;2023-08-12T09:52:48;13.55;;;4.78;;
82292;SDS011;71892;14.836;105.234;2023-08-12T09:55:16;15.45;;;6.07;;
82292;SDS011;71892;14.836;105.234;2023-08-12T09:57:43;11.27;;;4.70;;
82292;SDS011;71892;14.836;105.234;2023-08-12T10:00:13;9.77;;;4.82;;
82292;SDS011;71892;14.836;105.234;2023-08-12T10:02:44;20.65;;;4.90;;
82292;SDS011;71892;14.836;105.234;2023-08-12T10:05:12;15.32;;;4.30;;
82292;SDS011;71892;14.836;105.234;2023-08-12T10:07:45;18.83;;;4.80;;
82292;SDS011;71892;14.836;105.234;2023-08-12T10:10:14;19.52;;;4.75;;
82292;SDS011;71892;14.836;105.234;2023-08-12T10:12:41;12.95;;;5.28;;
82292;SDS011;71892;14.836;105.234;2023-08-12T10:15:08;15.13;;;5.10;;
82292;SDS011;71892;14.836;105.234;2023-08-12T10:20:04;15.02;;;4.93;;
82292;SDS011;71892;14.836;105.234;2023-08-12T10:22:31;12.00;;;5.03;;
82292;SDS011;71892;14.836;105.234;2023-08-12T10:25:01;15.55;;;4.50;;
82292;SDS011;71892;14.836;105.234;2023-08-12T10:27:28;12.07;;;5.03;;
82292;SDS011;71892;14.836;105.234;2023-08-12T10:29:58;18.35;;;5.40;;
82292;SDS011;71892;14.836;105.234;2023-08-12T10:32:28;14.85;;;5.35;;
82292;SDS011;71892;14.836;105.234;2023-08-12T10:34:57;19.10;;;6.35;;
82292;SDS011;71892;14.836;105.234;2023-08-12T10:37:24;18.10;;;6.20;;
82292;SDS011;71892;14.836;105.234;2023-08-12T10:39:54;13.18;;;5.82;;
82292;SDS011;71892;14.836;105.234;2023-08-12T10:45:11;15.68;;;6.35;;
82292;SDS011;71892;14.836;105.234;2023-08-12T10:47:39;12.25;;;5.55;;
82292;SDS011;71892;14.836;105.234;2023-08-12T10:50:16;16.95;;;5.95;;
82292;SDS011;71892;14.836;105.234;2023-08-12T10:52:44;17.30;;;5.93;;
82292;SDS011;71892;14.836;105.234;2023-08-12T10:55:17;14.35;;;6.05;;
82292;SDS011;71892;14.836;105.234;2023-08-12T10:57:47;11.73;;;6.15;;
82292;SDS011;71892;14.836;105.234;2023-08-12T11:00:15;16.35;;;5.72;;
82292;SDS011;71892;14.836;105.234;2023-08-12T11:02:46;14.85;;;6.35;;
82292;SDS011;71892;14.836;105.234;2023-08-12T11:05:16;15.50;;;6.13;;
82292;SDS011;71892;14.836;105.234;2023-08-12T11:07:48;11.50;;;5.85;;
82292;SDS011;71892;14.836;105.234;2023-08-12T11:10:26;15.50;;;6.78;;
82292;SDS011;71892;14.836;105.234;2023-08-12T11:12:56;16.63;;;6.65;;
82292;SDS011;71892;14.836;105.234;2023-08-12T11:15:36;11.18;;;6.03;;
82292;SDS011;71892;14.836;105.234;2023-08-12T11:18:08;11.77;;;5.72;;
82292;SDS011;71892;14.836;105.234;2023-08-12T11:20:36;13.85;;;6.40;;
82292;SDS011;71892;14.836;105.234;2023-08-12T11:23:03;16.50;;;6.13;;
82292;SDS011;71892;14.836;105.234;2023-08-12T11:25:31;13.38;;;5.38;;
82292;SDS011;71892;14.836;105.234;2023-08-12T11:27:58;13.32;;;6.43;;
82292;SDS011;71892;14.836;105.234;2023-08-12T11:30:25;14.93;;;6.88;;
82292;SDS011;71892;14.836;105.234;2023-08-12T11:32:53;17.90;;;7.63;;
82292;SDS011;71892;14.836;105.234;2023-08-12T11:35:21;15.80;;;6.70;;
82292;SDS011;71892;14.836;105.234;2023-08-12T11:37:53;12.50;;;7.00;;
82292;SDS011;71892;14.836;105.234;2023-08-12T11:40:22;14.80;;;5.28;;
82292;SDS011;71892;14.836;105.234;2023-08-12T11:42:50;15.38;;;4.55;;
82292;SDS011;71892;14.836;105.234;2023-08-12T11:45:19;27.77;;;11.57;;
82292;SDS011;71892;14.836;105.234;2023-08-12T11:47:49;21.73;;;6.60;;
82292;SDS011;71892;14.836;105.234;2023-08-12T11:50:19;11.73;;;4.78;;
82292;SDS011;71892;14.836;105.234;2023-08-12T11:52:50;14.20;;;4.88;;
82292;SDS011;71892;14.836;105.234;2023-08-12T11:55:17;9.30;;;3.40;;
82292;SDS011;71892;14.836;105.234;2023-08-12T11:57:44;7.00;;;2.83;;
82292;SDS011;71892;14.836;105.234;2023-08-12T12:00:11;6.40;;;2.58;;
82292;SDS011;71892;14.836;105.234;2023-08-12T12:02:39;8.18;;;2.72;;
82292;SDS011;71892;14.836;105.234;2023-08-12T12:05:08;9.20;;;3.05;;
82292;SDS011;71892;14.836;105.234;2023-08-12T12:07:36;11.45;;;3.95;;
82292;SDS011;71892;14.836;105.234;2023-08-12T12:10:03;15.20;;;4.90;;
82292;SDS011;71892;14.836;105.234;2023-08-12T12:12:34;11.73;;;4.80;;
82292;SDS011;71892;14.836;105.234;2023-08-12T12:15:02;12.15;;;4.15;;
82292;SDS011;71892;14.836;105.234;2023-08-12T12:17:29;11.15;;;4.72;;
82292;SDS011;71892;14.836;105.234;2023-08-12T12:19:56;13.38;;;5.50;;
82292;SDS011;71892;14.836;105.234;2023-08-12T12:22:30;16.42;;;6.53;;
82292;SDS011;71892;14.836;105.234;2023-08-12T12:25:05;19.23;;;7.68;;
82292;SDS011;71892;14.836;105.234;2023-08-12T12:27:33;16.75;;;7.88;;
82292;SDS011;71892;14.836;105.234;2023-08-12T12:29:59;16.55;;;5.97;;
82292;SDS011;71892;14.836;105.234;2023-08-12T12:32:26;10.77;;;5.07;;
82292;SDS011;71892;14.836;105.234;2023-08-12T12:34:53;14.13;;;5.45;;
82292;SDS011;71892;14.836;105.234;2023-08-12T12:37:20;9.82;;;4.60;;
82292;SDS011;71892;14.836;105.234;2023-08-12T12:39:46;11.35;;;4.25;;
82292;SDS011;71892;14.836;105.234;2023-08-12T12:42:13;9.55;;;4.63;;
82292;SDS011;71892;14.836;105.234;2023-08-12T12:44:39;12.05;;;4.07;;
82292;SDS011;71892;14.836;105.234;2023-08-12T12:47:06;9.63;;;4.32;;
82292;SDS011;71892;14.836;105.234;2023-08-12T12:49:32;10.82;;;5.13;;
82292;SDS011;71892;14.836;105.234;2023-08-12T12:51:59;10.30;;;4.97;;
82292;SDS011;71892;14.836;105.234;2023-08-12T12:54:25;12.73;;;4.63;;
82292;SDS011;71892;14.836;105.234;2023-08-12T12:56:51;11.50;;;5.60;;
82292;SDS011;71892;14.836;105.234;2023-08-12T12:59:18;10.50;;;5.28;;
82292;SDS011;71892;14.836;105.234;2023-08-12T13:01:44;9.52;;;5.47;;
82292;SDS011;71892;14.836;105.234;2023-08-12T13:04:11;12.65;;;5.72;;
82292;SDS011;71892;14.836;105.234;2023-08-12T13:06:37;10.63;;;5.57;;
82292;SDS011;71892;14.836;105.234;2023-08-12T13:09:05;10.93;;;5.55;;
82292;SDS011;71892;14.836;105.234;2023-08-12T13:11:32;13.48;;;6.35;;
82292;SDS011;71892;14.836;105.234;2023-08-12T13:14:02;17.02;;;6.38;;
82292;SDS011;71892;14.836;105.234;2023-08-12T13:16:29;11.27;;;5.90;;
82292;SDS011;71892;14.836;105.234;2023-08-12T13:18:56;13.18;;;6.35;;
82292;SDS011;71892;14.836;105.234;2023-08-12T13:21:25;12.95;;;6.35;;
82292;SDS011;71892;14.836;105.234;2023-08-12T13:23:53;11.90;;;5.35;;
82292;SDS011;71892;14.836;105.234;2023-08-12T13:26:22;15.82;;;6.80;;
82292;SDS011;71892;14.836;105.234;2023-08-12T13:28:48;12.00;;;6.07;;
82292;SDS011;71892;14.836;105.234;2023-08-12T13:31:15;13.60;;;6.07;;
82292;SDS011;71892;14.836;105.234;2023-08-12T13:33:41;11.95;;;5.43;;
82292;SDS011;71892;14.836;105.234;2023-08-12T13:36:07;18.15;;;5.93;;
82292;SDS011;71892;14.836;105.234;2023-08-12T13:38:34;11.82;;;6.03;;
82292;SDS011;71892;14.836;105.234;2023-08-12T13:41:00;13.32;;;6.60;;
82292;SDS011;71892;14.836;105.234;2023-08-12T13:43:26;14.27;;;7.38;;
82292;SDS011;71892;14.836;105.234;2023-08-12T13:45:53;17.67;;;7.95;;
82292;SDS011;71892;14.836;105.234;2023-08-12T13:48:19;21.42;;;7.95;;
82292;SDS011;71892;14.836;105.234;2023-08-12T13:50:45;12.98;;;7.57;;
82292;SDS011;71892;14.836;105.234;2023-08-12T13:53:15;18.05;;;7.82;;
82292;SDS011;71892;14.836;105.234;2023-08-12T13:55:41;13.88;;;7.50;;
82292;SDS011;71892;14.836;105.234;2023-08-12T13:58:07;17.92;;;7.60;;
82292;SDS011;71892;14.836;105.234;2023-08-12T14:00:34;12.23;;;6.57;;
82292;SDS011;71892;14.836;105.234;2023-08-12T14:03:00;11.88;;;6.47;;
82292;SDS011;71892;14.836;105.234;2023-08-12T14:05:26;13.48;;;6.43;;
82292;SDS011;71892;14.836;105.234;2023-08-12T14:07:53;15.93;;;6.55;;
82292;SDS011;71892;14.836;105.234;2023-08-12T14:10:19;13.40;;;6.03;;
82292;SDS011;71892;14.836;105.234;2023-08-12T14:12:45;18.05;;;7.60;;
82292;SDS011;71892;14.836;105.234;2023-08-12T14:15:14;17.08;;;6.75;;
82292;SDS011;71892;14.836;105.234;2023-08-12T14:17:40;13.43;;;6.63;;
82292;SDS011;71892;14.836;105.234;2023-08-12T14:20:07;9.43;;;5.75;;
82292;SDS011;71892;14.836;105.234;2023-08-12T14:22:34;13.82;;;6.90;;
82292;SDS011;71892;14.836;105.234;2023-08-12T14:25:02;13.88;;;6.90;;